sensor_id;sensor_type;location;lat;lon;timestamp;temperature;humidity
40756;DHT22;26461;45.630;9.418;2023-08-21T00:00:56;30.40;52.20
40756;DHT22;26461;45.630;9.418;2023-08-21T00:04:13;30.40;52.20
40756;DHT22;26461;45.630;9.418;2023-08-21T00:07:33;30.40;52.50
40756;DHT22;26461;45.630;9.418;2023-08-21T00:10:48;30.40;52.50
40756;DHT22;26461;45.630;9.418;2023-08-21T00:14:03;30.30;52.40
40756;DHT22;26461;45.630;9.418;2023-08-21T00:17:21;30.40;52.20
40756;DHT22;26461;45.630;9.418;2023-08-21T00:20:29;30.40;52.10
40756;DHT22;26461;45.630;9.418;2023-08-21T00:23:36;30.40;52.00
40756;DHT22;26461;45.630;9.418;2023-08-21T00:26:45;30.40;51.80
40756;DHT22;26461;45.630;9.418;2023-08-21T00:29:55;30.40;52.00
40756;DHT22;26461;45.630;9.418;2023-08-21T00:33:03;30.40;52.00
40756;DHT22;26461;45.630;9.418;2023-08-21T00:36:14;30.40;52.00
40756;DHT22;26461;45.630;9.418;2023-08-21T00:39:20;30.40;52.20
40756;DHT22;26461;45.630;9.418;2023-08-21T00:42:36;30.30;52.20
40756;DHT22;26461;45.630;9.418;2023-08-21T00:45:44;30.30;52.20
40756;DHT22;26461;45.630;9.418;2023-08-21T00:48:55;30.20;52.30
40756;DHT22;26461;45.630;9.418;2023-08-21T00:52:08;30.20;52.80
40756;DHT22;26461;45.630;9.418;2023-08-21T00:55:20;30.10;53.10
40756;DHT22;26461;45.630;9.418;2023-08-21T00:58:25;30.00;53.30
40756;DHT22;26461;45.630;9.418;2023-08-21T01:01:32;29.90;53.60
40756;DHT22;26461;45.630;9.418;2023-08-21T01:04:44;29.80;53.80
40756;DHT22;26461;45.630;9.418;2023-08-21T01:08:06;29.70;53.90
40756;DHT22;26461;45.630;9.418;2023-08-21T01:11:28;29.70;54.40
40756;DHT22;26461;45.630;9.418;2023-08-21T01:14:54;29.70;54.20
40756;DHT22;26461;45.630;9.418;2023-08-21T01:18:08;29.70;54.00
40756;DHT22;26461;45.630;9.418;2023-08-21T01:21:15;29.80;53.80
40756;DHT22;26461;45.630;9.418;2023-08-21T01:24:20;29.80;53.70
40756;DHT22;26461;45.630;9.418;2023-08-21T01:27:25;29.70;53.60
40756;DHT22;26461;45.630;9.418;2023-08-21T01:30:32;29.70;53.70
40756;DHT22;26461;45.630;9.418;2023-08-21T01:33:45;29.80;53.70
40756;DHT22;26461;45.630;9.418;2023-08-21T01:36:52;29.80;53.40
40756;DHT22;26461;45.630;9.418;2023-08-21T01:39:58;29.80;53.40
40756;DHT22;26461;45.630;9.418;2023-08-21T01:43:08;29.80;53.50
40756;DHT22;26461;45.630;9.418;2023-08-21T01:46:13;29.70;53.70
40756;DHT22;26461;45.630;9.418;2023-08-21T01:49:23;29.60;54.00
40756;DHT22;26461;45.630;9.418;2023-08-21T01:52:29;29.50;54.20
40756;DHT22;26461;45.630;9.418;2023-08-21T01:55:34;29.40;54.40
40756;DHT22;26461;45.630;9.418;2023-08-21T01:58:39;29.40;54.60
40756;DHT22;26461;45.630;9.418;2023-08-21T02:01:45;29.40;54.70
40756;DHT22;26461;45.630;9.418;2023-08-21T02:04:55;29.40;54.60
40756;DHT22;26461;45.630;9.418;2023-08-21T02:08:00;29.40;54.60
40756;DHT22;26461;45.630;9.418;2023-08-21T02:11:12;29.30;54.60
40756;DHT22;26461;45.630;9.418;2023-08-21T02:14:18;29.30;54.80
40756;DHT22;26461;45.630;9.418;2023-08-21T02:17:26;29.20;54.80
40756;DHT22;26461;45.630;9.418;2023-08-21T02:20:32;29.30;54.90
40756;DHT22;26461;45.630;9.418;2023-08-21T02:23:38;29.30;54.90
40756;DHT22;26461;45.630;9.418;2023-08-21T02:26:43;29.30;54.70
40756;DHT22;26461;45.630;9.418;2023-08-21T02:29:51;29.30;54.50
40756;DHT22;26461;45.630;9.418;2023-08-21T02:32:56;29.40;54.40
40756;DHT22;26461;45.630;9.418;2023-08-21T02:36:02;29.40;54.30
40756;DHT22;26461;45.630;9.418;2023-08-21T02:39:08;29.40;54.20
40756;DHT22;26461;45.630;9.418;2023-08-21T02:42:19;29.40;54.30
40756;DHT22;26461;45.630;9.418;2023-08-21T02:45:24;29.40;54.40
40756;DHT22;26461;45.630;9.418;2023-08-21T02:48:29;29.40;54.40
40756;DHT22;26461;45.630;9.418;2023-08-21T02:51:40;29.40;54.50
40756;DHT22;26461;45.630;9.418;2023-08-21T02:54:45;29.40;54.60
40756;DHT22;26461;45.630;9.418;2023-08-21T02:57:56;29.30;54.50
40756;DHT22;26461;45.630;9.418;2023-08-21T03:01:02;29.30;54.60
40756;DHT22;26461;45.630;9.418;2023-08-21T03:04:12;29.30;54.70
40756;DHT22;26461;45.630;9.418;2023-08-21T03:07:18;29.30;54.80
40756;DHT22;26461;45.630;9.418;2023-08-21T03:10:25;29.30;54.80
40756;DHT22;26461;45.630;9.418;2023-08-21T03:13:35;29.30;55.20
40756;DHT22;26461;45.630;9.418;2023-08-21T03:16:45;29.40;54.60
40756;DHT22;26461;45.630;9.418;2023-08-21T03:19:50;29.40;54.50
40756;DHT22;26461;45.630;9.418;2023-08-21T03:22:56;29.30;54.60
40756;DHT22;26461;45.630;9.418;2023-08-21T03:26:02;29.20;54.80
40756;DHT22;26461;45.630;9.418;2023-08-21T03:29:07;29.10;55.00
40756;DHT22;26461;45.630;9.418;2023-08-21T03:32:13;29.10;55.30
40756;DHT22;26461;45.630;9.418;2023-08-21T03:35:19;29.00;55.40
40756;DHT22;26461;45.630;9.418;2023-08-21T03:38:25;29.00;55.70
40756;DHT22;26461;45.630;9.418;2023-08-21T03:41:35;28.90;55.80
40756;DHT22;26461;45.630;9.418;2023-08-21T03:44:40;28.80;55.90
40756;DHT22;26461;45.630;9.418;2023-08-21T03:47:46;28.70;56.10
40756;DHT22;26461;45.630;9.418;2023-08-21T03:50:56;28.70;56.30
40756;DHT22;26461;45.630;9.418;2023-08-21T03:54:09;28.60;56.40
40756;DHT22;26461;45.630;9.418;2023-08-21T03:57:15;28.60;56.60
40756;DHT22;26461;45.630;9.418;2023-08-21T04:00:25;28.60;56.80
40756;DHT22;26461;45.630;9.418;2023-08-21T04:03:35;28.50;56.70
40756;DHT22;26461;45.630;9.418;2023-08-21T04:06:46;28.50;56.80
40756;DHT22;26461;45.630;9.418;2023-08-21T04:09:51;28.50;57.00
40756;DHT22;26461;45.630;9.418;2023-08-21T04:12:56;28.50;57.10
40756;DHT22;26461;45.630;9.418;2023-08-21T04:16:03;28.50;57.30
40756;DHT22;26461;45.630;9.418;2023-08-21T04:19:13;28.50;57.20
40756;DHT22;26461;45.630;9.418;2023-08-21T04:22:24;28.50;57.40
40756;DHT22;26461;45.630;9.418;2023-08-21T04:25:29;28.40;57.40
40756;DHT22;26461;45.630;9.418;2023-08-21T04:28:36;28.40;57.40
40756;DHT22;26461;45.630;9.418;2023-08-21T04:31:41;28.40;57.40
40756;DHT22;26461;45.630;9.418;2023-08-21T04:34:52;28.40;57.50
40756;DHT22;26461;45.630;9.418;2023-08-21T04:38:02;28.40;57.70
40756;DHT22;26461;45.630;9.418;2023-08-21T04:41:13;28.40;57.80
40756;DHT22;26461;45.630;9.418;2023-08-21T04:44:24;28.40;57.80
40756;DHT22;26461;45.630;9.418;2023-08-21T04:47:30;28.40;57.90
40756;DHT22;26461;45.630;9.418;2023-08-21T04:50:37;28.50;58.00
40756;DHT22;26461;45.630;9.418;2023-08-21T04:53:42;28.40;57.90
40756;DHT22;26461;45.630;9.418;2023-08-21T04:56:53;28.50;58.10
40756;DHT22;26461;45.630;9.418;2023-08-21T04:59:58;28.50;58.10
40756;DHT22;26461;45.630;9.418;2023-08-21T05:03:12;28.50;58.10
40756;DHT22;26461;45.630;9.418;2023-08-21T05:06:21;28.50;58.10
40756;DHT22;26461;45.630;9.418;2023-08-21T05:09:33;28.50;58.20
40756;DHT22;26461;45.630;9.418;2023-08-21T05:12:46;28.50;58.20
40756;DHT22;26461;45.630;9.418;2023-08-21T05:15:52;28.50;58.20
40756;DHT22;26461;45.630;9.418;2023-08-21T05:19:07;28.50;58.30
40756;DHT22;26461;45.630;9.418;2023-08-21T05:22:13;28.50;58.40
40756;DHT22;26461;45.630;9.418;2023-08-21T05:25:18;28.50;58.40
40756;DHT22;26461;45.630;9.418;2023-08-21T05:28:29;28.50;58.40
40756;DHT22;26461;45.630;9.418;2023-08-21T05:31:34;28.60;58.50
40756;DHT22;26461;45.630;9.418;2023-08-21T05:34:41;28.60;58.50
40756;DHT22;26461;45.630;9.418;2023-08-21T05:37:46;28.60;58.50
40756;DHT22;26461;45.630;9.418;2023-08-21T05:41:26;28.60;58.50
40756;DHT22;26461;45.630;9.418;2023-08-21T05:45:12;28.70;58.60
40756;DHT22;26461;45.630;9.418;2023-08-21T05:55:29;28.70;58.50
40756;DHT22;26461;45.630;9.418;2023-08-21T05:58:45;28.80;58.60
40756;DHT22;26461;45.630;9.418;2023-08-21T06:02:13;28.80;58.50
40756;DHT22;26461;45.630;9.418;2023-08-21T06:05:39;28.90;58.60
40756;DHT22;26461;45.630;9.418;2023-08-21T06:08:44;28.90;58.70
40756;DHT22;26461;45.630;9.418;2023-08-21T06:11:58;28.90;58.80
40756;DHT22;26461;45.630;9.418;2023-08-21T06:15:12;29.00;58.80
40756;DHT22;26461;45.630;9.418;2023-08-21T06:18:22;29.00;58.80
40756;DHT22;26461;45.630;9.418;2023-08-21T06:21:32;29.00;58.80
40756;DHT22;26461;45.630;9.418;2023-08-21T06:24:39;29.00;58.70
40756;DHT22;26461;45.630;9.418;2023-08-21T06:27:51;29.10;58.80
40756;DHT22;26461;45.630;9.418;2023-08-21T06:31:01;29.10;58.90
40756;DHT22;26461;45.630;9.418;2023-08-21T06:34:23;29.20;58.90
40756;DHT22;26461;45.630;9.418;2023-08-21T06:37:34;29.20;58.70
40756;DHT22;26461;45.630;9.418;2023-08-21T06:40:45;29.20;58.70
40756;DHT22;26461;45.630;9.418;2023-08-21T06:43:56;29.30;58.70
40756;DHT22;26461;45.630;9.418;2023-08-21T06:47:10;29.30;58.50
40756;DHT22;26461;45.630;9.418;2023-08-21T06:50:36;29.30;58.30
40756;DHT22;26461;45.630;9.418;2023-08-21T06:53:54;29.40;58.00
40756;DHT22;26461;45.630;9.418;2023-08-21T06:57:08;29.40;57.70
40756;DHT22;26461;45.630;9.418;2023-08-21T07:00:22;29.50;57.30
40756;DHT22;26461;45.630;9.418;2023-08-21T07:03:31;29.50;57.10
40756;DHT22;26461;45.630;9.418;2023-08-21T07:06:48;29.50;57.40
40756;DHT22;26461;45.630;9.418;2023-08-21T07:10:01;29.60;56.60
40756;DHT22;26461;45.630;9.418;2023-08-21T07:13:10;29.70;56.40
40756;DHT22;26461;45.630;9.418;2023-08-21T07:16:19;29.70;56.30
40756;DHT22;26461;45.630;9.418;2023-08-21T07:19:44;29.70;56.20
40756;DHT22;26461;45.630;9.418;2023-08-21T07:23:04;29.80;56.20
40756;DHT22;26461;45.630;9.418;2023-08-21T07:26:15;29.90;56.00
40756;DHT22;26461;45.630;9.418;2023-08-21T07:29:27;29.90;56.00
40756;DHT22;26461;45.630;9.418;2023-08-21T07:32:41;29.90;56.00
40756;DHT22;26461;45.630;9.418;2023-08-21T07:35:57;29.90;54.90
40756;DHT22;26461;45.630;9.418;2023-08-21T07:39:09;29.90;54.40
40756;DHT22;26461;45.630;9.418;2023-08-21T07:42:20;30.00;54.10
40756;DHT22;26461;45.630;9.418;2023-08-21T07:45:29;30.00;54.10
40756;DHT22;26461;45.630;9.418;2023-08-21T07:48:41;30.10;52.40
40756;DHT22;26461;45.630;9.418;2023-08-21T07:51:47;30.00;51.40
40756;DHT22;26461;45.630;9.418;2023-08-21T07:54:57;30.00;51.30
40756;DHT22;26461;45.630;9.418;2023-08-21T07:58:15;30.00;51.00
40756;DHT22;26461;45.630;9.418;2023-08-21T08:01:25;30.10;51.00
40756;DHT22;26461;45.630;9.418;2023-08-21T08:04:40;30.10;50.00
40756;DHT22;26461;45.630;9.418;2023-08-21T08:07:54;30.10;49.60
40756;DHT22;26461;45.630;9.418;2023-08-21T08:11:10;30.10;49.80
40756;DHT22;26461;45.630;9.418;2023-08-21T08:14:19;30.20;50.50
40756;DHT22;26461;45.630;9.418;2023-08-21T08:17:38;30.20;50.80
40756;DHT22;26461;45.630;9.418;2023-08-21T08:20:44;30.20;51.00
40756;DHT22;26461;45.630;9.418;2023-08-21T08:23:50;30.30;51.50
40756;DHT22;26461;45.630;9.418;2023-08-21T08:26:56;30.30;50.50
40756;DHT22;26461;45.630;9.418;2023-08-21T08:30:10;30.30;50.50
40756;DHT22;26461;45.630;9.418;2023-08-21T08:33:19;30.30;50.60
40756;DHT22;26461;45.630;9.418;2023-08-21T08:36:32;30.40;50.50
40756;DHT22;26461;45.630;9.418;2023-08-21T08:39:41;30.40;50.50
40756;DHT22;26461;45.630;9.418;2023-08-21T08:42:50;30.40;50.30
40756;DHT22;26461;45.630;9.418;2023-08-21T08:45:58;30.50;49.40
40756;DHT22;26461;45.630;9.418;2023-08-21T08:49:13;30.50;49.80
40756;DHT22;26461;45.630;9.418;2023-08-21T08:52:25;30.60;49.20
40756;DHT22;26461;45.630;9.418;2023-08-21T08:55:34;30.50;49.60
40756;DHT22;26461;45.630;9.418;2023-08-21T08:58:54;30.60;49.40
40756;DHT22;26461;45.630;9.418;2023-08-21T09:02:11;30.60;49.10
40756;DHT22;26461;45.630;9.418;2023-08-21T09:05:26;30.60;49.20
40756;DHT22;26461;45.630;9.418;2023-08-21T09:08:35;30.60;49.10
40756;DHT22;26461;45.630;9.418;2023-08-21T09:12:00;30.70;49.20
40756;DHT22;26461;45.630;9.418;2023-08-21T09:15:30;30.70;49.50
40756;DHT22;26461;45.630;9.418;2023-08-21T09:18:46;30.80;49.90
40756;DHT22;26461;45.630;9.418;2023-08-21T09:21:58;30.80;49.70
40756;DHT22;26461;45.630;9.418;2023-08-21T09:25:12;30.90;49.50
40756;DHT22;26461;45.630;9.418;2023-08-21T09:28:25;30.90;49.10
40756;DHT22;26461;45.630;9.418;2023-08-21T09:31:39;30.90;48.50
40756;DHT22;26461;45.630;9.418;2023-08-21T09:34:55;30.90;48.50
40756;DHT22;26461;45.630;9.418;2023-08-21T09:38:07;31.00;48.60
40756;DHT22;26461;45.630;9.418;2023-08-21T09:41:26;31.00;48.70
40756;DHT22;26461;45.630;9.418;2023-08-21T09:44:42;31.00;48.90
40756;DHT22;26461;45.630;9.418;2023-08-21T09:48:08;31.10;48.90
40756;DHT22;26461;45.630;9.418;2023-08-21T09:51:26;31.10;48.50
40756;DHT22;26461;45.630;9.418;2023-08-21T09:54:38;31.10;48.30
40756;DHT22;26461;45.630;9.418;2023-08-21T09:57:59;31.10;48.30
40756;DHT22;26461;45.630;9.418;2023-08-21T10:01:21;31.20;48.50
40756;DHT22;26461;45.630;9.418;2023-08-21T10:04:45;31.20;47.80
40756;DHT22;26461;45.630;9.418;2023-08-21T10:08:01;31.20;48.30
40756;DHT22;26461;45.630;9.418;2023-08-21T10:11:19;31.20;47.20
40756;DHT22;26461;45.630;9.418;2023-08-21T10:14:30;31.20;47.40
40756;DHT22;26461;45.630;9.418;2023-08-21T10:17:52;31.30;47.00
40756;DHT22;26461;45.630;9.418;2023-08-21T10:21:19;31.20;46.90
40756;DHT22;26461;45.630;9.418;2023-08-21T10:24:44;31.30;47.40
40756;DHT22;26461;45.630;9.418;2023-08-21T10:27:55;31.40;47.20
40756;DHT22;26461;45.630;9.418;2023-08-21T10:31:40;31.40;47.00
40756;DHT22;26461;45.630;9.418;2023-08-21T10:34:54;31.40;46.50
40756;DHT22;26461;45.630;9.418;2023-08-21T10:41:39;31.50;46.40
40756;DHT22;26461;45.630;9.418;2023-08-21T10:44:53;31.50;46.70
40756;DHT22;26461;45.630;9.418;2023-08-21T10:48:15;31.50;47.40
40756;DHT22;26461;45.630;9.418;2023-08-21T10:51:29;31.60;46.60
40756;DHT22;26461;45.630;9.418;2023-08-21T10:55:00;31.70;45.90
40756;DHT22;26461;45.630;9.418;2023-08-21T10:58:17;31.70;44.90
40756;DHT22;26461;45.630;9.418;2023-08-21T11:01:26;31.70;45.40
40756;DHT22;26461;45.630;9.418;2023-08-21T11:04:48;31.80;44.50
40756;DHT22;26461;45.630;9.418;2023-08-21T11:07:57;31.70;43.50
40756;DHT22;26461;45.630;9.418;2023-08-21T11:11:17;31.80;44.10
40756;DHT22;26461;45.630;9.418;2023-08-21T11:14:30;31.80;44.10
40756;DHT22;26461;45.630;9.418;2023-08-21T11:17:39;31.80;43.80
40756;DHT22;26461;45.630;9.418;2023-08-21T11:20:48;31.90;43.30
40756;DHT22;26461;45.630;9.418;2023-08-21T11:24:07;31.90;44.10
40756;DHT22;26461;45.630;9.418;2023-08-21T11:27:16;31.90;43.40
40756;DHT22;26461;45.630;9.418;2023-08-21T11:30:40;32.00;43.10
40756;DHT22;26461;45.630;9.418;2023-08-21T11:33:54;32.00;43.20
40756;DHT22;26461;45.630;9.418;2023-08-21T11:37:00;32.00;43.10
40756;DHT22;26461;45.630;9.418;2023-08-21T11:40:09;32.00;42.10
40756;DHT22;26461;45.630;9.418;2023-08-21T11:43:40;32.10;42.30
40756;DHT22;26461;45.630;9.418;2023-08-21T11:46:54;32.10;40.60
40756;DHT22;26461;45.630;9.418;2023-08-21T11:50:16;32.10;40.90
40756;DHT22;26461;45.630;9.418;2023-08-21T11:53:38;32.10;40.90
40756;DHT22;26461;45.630;9.418;2023-08-21T11:56:57;32.20;40.80
40756;DHT22;26461;45.630;9.418;2023-08-21T12:00:04;32.20;41.60
40756;DHT22;26461;45.630;9.418;2023-08-21T12:03:39;32.30;42.10
40756;DHT22;26461;45.630;9.418;2023-08-21T12:06:56;32.30;42.20
40756;DHT22;26461;45.630;9.418;2023-08-21T12:10:29;32.40;41.50
40756;DHT22;26461;45.630;9.418;2023-08-21T12:13:44;32.40;41.40
40756;DHT22;26461;45.630;9.418;2023-08-21T12:16:58;32.50;41.10
40756;DHT22;26461;45.630;9.418;2023-08-21T12:20:07;32.50;41.60
40756;DHT22;26461;45.630;9.418;2023-08-21T12:23:30;32.60;41.30
40756;DHT22;26461;45.630;9.418;2023-08-21T12:26:42;32.60;41.20
40756;DHT22;26461;45.630;9.418;2023-08-21T12:30:02;32.60;41.80
40756;DHT22;26461;45.630;9.418;2023-08-21T12:33:28;32.60;41.20
40756;DHT22;26461;45.630;9.418;2023-08-21T12:36:43;32.70;41.90
40756;DHT22;26461;45.630;9.418;2023-08-21T12:39:58;32.70;40.10
40756;DHT22;26461;45.630;9.418;2023-08-21T12:43:14;32.80;40.30
40756;DHT22;26461;45.630;9.418;2023-08-21T12:46:35;32.80;40.60
40756;DHT22;26461;45.630;9.418;2023-08-21T12:49:54;32.80;40.60
40756;DHT22;26461;45.630;9.418;2023-08-21T12:53:04;32.90;41.10
40756;DHT22;26461;45.630;9.418;2023-08-21T12:56:13;32.90;40.60
40756;DHT22;26461;45.630;9.418;2023-08-21T12:59:29;33.00;40.70
40756;DHT22;26461;45.630;9.418;2023-08-21T13:02:37;33.00;40.00
40756;DHT22;26461;45.630;9.418;2023-08-21T13:05:46;33.10;40.40
40756;DHT22;26461;45.630;9.418;2023-08-21T13:08:58;33.10;39.90
40756;DHT22;26461;45.630;9.418;2023-08-21T13:12:14;33.20;39.90
40756;DHT22;26461;45.630;9.418;2023-08-21T13:15:20;33.20;40.00
40756;DHT22;26461;45.630;9.418;2023-08-21T13:18:36;33.30;40.30
40756;DHT22;26461;45.630;9.418;2023-08-21T13:21:51;33.40;39.80
40756;DHT22;26461;45.630;9.418;2023-08-21T13:25:11;33.40;39.50
40756;DHT22;26461;45.630;9.418;2023-08-21T13:28:26;33.50;39.20
40756;DHT22;26461;45.630;9.418;2023-08-21T13:31:40;33.60;39.30
40756;DHT22;26461;45.630;9.418;2023-08-21T13:34:50;33.60;39.30
40756;DHT22;26461;45.630;9.418;2023-08-21T13:37:58;33.70;39.10
40756;DHT22;26461;45.630;9.418;2023-08-21T13:41:11;33.80;38.70
40756;DHT22;26461;45.630;9.418;2023-08-21T13:44:25;33.90;38.40
40756;DHT22;26461;45.630;9.418;2023-08-21T13:47:38;33.90;38.00
40756;DHT22;26461;45.630;9.418;2023-08-21T13:50:52;34.10;38.20
40756;DHT22;26461;45.630;9.418;2023-08-21T13:54:00;34.10;37.70
40756;DHT22;26461;45.630;9.418;2023-08-21T13:57:21;34.20;38.00
40756;DHT22;26461;45.630;9.418;2023-08-21T14:00:33;34.30;38.20
40756;DHT22;26461;45.630;9.418;2023-08-21T14:03:49;34.40;38.70
40756;DHT22;26461;45.630;9.418;2023-08-21T14:07:01;34.50;37.20
40756;DHT22;26461;45.630;9.418;2023-08-21T14:10:12;34.60;37.40
40756;DHT22;26461;45.630;9.418;2023-08-21T14:13:19;34.60;36.20
40756;DHT22;26461;45.630;9.418;2023-08-21T14:16:34;34.70;35.70
40756;DHT22;26461;45.630;9.418;2023-08-21T14:19:49;34.80;36.20
40756;DHT22;26461;45.630;9.418;2023-08-21T14:23:01;34.90;36.40
40756;DHT22;26461;45.630;9.418;2023-08-21T14:26:10;35.00;36.30
40756;DHT22;26461;45.630;9.418;2023-08-21T14:29:19;35.10;35.50
40756;DHT22;26461;45.630;9.418;2023-08-21T14:32:39;35.20;35.60
40756;DHT22;26461;45.630;9.418;2023-08-21T14:35:59;35.20;35.70
40756;DHT22;26461;45.630;9.418;2023-08-21T14:39:05;35.30;35.90
40756;DHT22;26461;45.630;9.418;2023-08-21T14:42:22;35.40;35.30
40756;DHT22;26461;45.630;9.418;2023-08-21T14:45:28;35.50;34.90
40756;DHT22;26461;45.630;9.418;2023-08-21T14:48:37;35.60;34.90
40756;DHT22;26461;45.630;9.418;2023-08-21T14:51:49;35.60;34.50
40756;DHT22;26461;45.630;9.418;2023-08-21T14:54:59;35.70;34.30
40756;DHT22;26461;45.630;9.418;2023-08-21T14:58:13;35.80;34.30
40756;DHT22;26461;45.630;9.418;2023-08-21T15:01:24;36.00;34.30
40756;DHT22;26461;45.630;9.418;2023-08-21T15:04:35;36.10;34.20
40756;DHT22;26461;45.630;9.418;2023-08-21T15:07:49;36.20;34.00
40756;DHT22;26461;45.630;9.418;2023-08-21T15:11:13;36.40;33.90
40756;DHT22;26461;45.630;9.418;2023-08-21T15:14:26;36.50;33.90
40756;DHT22;26461;45.630;9.418;2023-08-21T15:17:51;36.70;33.90
40756;DHT22;26461;45.630;9.418;2023-08-21T15:20:57;36.80;34.30
40756;DHT22;26461;45.630;9.418;2023-08-21T15:24:17;37.00;35.00
40756;DHT22;26461;45.630;9.418;2023-08-21T15:27:35;37.10;34.00
40756;DHT22;26461;45.630;9.418;2023-08-21T15:30:53;37.10;33.30
40756;DHT22;26461;45.630;9.418;2023-08-21T15:34:05;37.20;33.70
40756;DHT22;26461;45.630;9.418;2023-08-21T15:37:19;37.30;33.80
40756;DHT22;26461;45.630;9.418;2023-08-21T15:40:33;37.40;33.50
40756;DHT22;26461;45.630;9.418;2023-08-21T15:43:44;37.60;33.50
40756;DHT22;26461;45.630;9.418;2023-08-21T15:47:00;37.60;33.20
40756;DHT22;26461;45.630;9.418;2023-08-21T15:50:18;37.80;32.90
40756;DHT22;26461;45.630;9.418;2023-08-21T15:53:38;37.90;32.90
40756;DHT22;26461;45.630;9.418;2023-08-21T15:57:01;37.90;32.80
40756;DHT22;26461;45.630;9.418;2023-08-21T16:00:18;38.00;32.90
40756;DHT22;26461;45.630;9.418;2023-08-21T16:03:36;38.00;32.50
40756;DHT22;26461;45.630;9.418;2023-08-21T16:06:48;38.10;32.70
40756;DHT22;26461;45.630;9.418;2023-08-21T16:10:01;38.20;32.50
40756;DHT22;26461;45.630;9.418;2023-08-21T16:13:10;38.20;31.80
40756;DHT22;26461;45.630;9.418;2023-08-21T16:16:23;38.30;31.90
40756;DHT22;26461;45.630;9.418;2023-08-21T16:19:43;38.30;31.80
40756;DHT22;26461;45.630;9.418;2023-08-21T16:23:01;38.40;31.80
40756;DHT22;26461;45.630;9.418;2023-08-21T16:26:22;38.40;31.50
40756;DHT22;26461;45.630;9.418;2023-08-21T16:29:37;38.40;32.10
40756;DHT22;26461;45.630;9.418;2023-08-21T16:32:43;38.40;32.30
40756;DHT22;26461;45.630;9.418;2023-08-21T16:36:06;38.40;31.90
40756;DHT22;26461;45.630;9.418;2023-08-21T16:39:15;38.40;31.80
40756;DHT22;26461;45.630;9.418;2023-08-21T16:42:33;38.40;31.60
40756;DHT22;26461;45.630;9.418;2023-08-21T16:45:46;38.40;31.70
40756;DHT22;26461;45.630;9.418;2023-08-21T16:48:52;38.40;31.30
40756;DHT22;26461;45.630;9.418;2023-08-21T16:52:05;38.40;31.30
40756;DHT22;26461;45.630;9.418;2023-08-21T16:55:27;38.40;31.40
40756;DHT22;26461;45.630;9.418;2023-08-21T16:58:36;38.40;31.00
40756;DHT22;26461;45.630;9.418;2023-08-21T17:01:54;38.50;31.30
40756;DHT22;26461;45.630;9.418;2023-08-21T17:05:01;38.50;32.00
40756;DHT22;26461;45.630;9.418;2023-08-21T17:08:11;38.50;31.60
40756;DHT22;26461;45.630;9.418;2023-08-21T17:11:28;38.50;31.10
40756;DHT22;26461;45.630;9.418;2023-08-21T17:14:47;38.50;31.20
40756;DHT22;26461;45.630;9.418;2023-08-21T17:18:00;38.50;31.00
40756;DHT22;26461;45.630;9.418;2023-08-21T17:21:19;38.40;30.90
40756;DHT22;26461;45.630;9.418;2023-08-21T17:24:36;38.40;31.10
40756;DHT22;26461;45.630;9.418;2023-08-21T17:27:45;38.40;31.60
40756;DHT22;26461;45.630;9.418;2023-08-21T17:30:55;38.30;31.50
40756;DHT22;26461;45.630;9.418;2023-08-21T17:34:01;38.30;31.40
40756;DHT22;26461;45.630;9.418;2023-08-21T17:37:12;38.20;31.30
40756;DHT22;26461;45.630;9.418;2023-08-21T17:40:23;38.10;31.30
40756;DHT22;26461;45.630;9.418;2023-08-21T17:43:45;38.00;31.90
40756;DHT22;26461;45.630;9.418;2023-08-21T17:47:01;37.90;32.50
40756;DHT22;26461;45.630;9.418;2023-08-21T17:50:15;37.80;33.20
40756;DHT22;26461;45.630;9.418;2023-08-21T17:53:30;37.70;33.40
40756;DHT22;26461;45.630;9.418;2023-08-21T17:56:40;37.60;33.90
40756;DHT22;26461;45.630;9.418;2023-08-21T17:59:53;37.50;33.90
40756;DHT22;26461;45.630;9.418;2023-08-21T18:03:02;37.30;34.20
40756;DHT22;26461;45.630;9.418;2023-08-21T18:06:16;37.10;34.60
40756;DHT22;26461;45.630;9.418;2023-08-21T18:09:37;36.90;34.90
40756;DHT22;26461;45.630;9.418;2023-08-21T18:12:47;36.70;35.90
40756;DHT22;26461;45.630;9.418;2023-08-21T18:15:53;36.40;36.90
40756;DHT22;26461;45.630;9.418;2023-08-21T18:19:03;36.00;37.90
40756;DHT22;26461;45.630;9.418;2023-08-21T18:22:08;35.60;38.90
40756;DHT22;26461;45.630;9.418;2023-08-21T18:25:14;35.30;38.30
40756;DHT22;26461;45.630;9.418;2023-08-21T18:28:25;35.10;38.00
40756;DHT22;26461;45.630;9.418;2023-08-21T18:31:30;35.10;38.00
40756;DHT22;26461;45.630;9.418;2023-08-21T18:34:36;35.00;38.10
40756;DHT22;26461;45.630;9.418;2023-08-21T18:37:49;35.00;38.30
40756;DHT22;26461;45.630;9.418;2023-08-21T18:40:59;35.00;38.40
40756;DHT22;26461;45.630;9.418;2023-08-21T18:44:11;34.90;38.90
40756;DHT22;26461;45.630;9.418;2023-08-21T18:47:16;34.90;39.40
40756;DHT22;26461;45.630;9.418;2023-08-21T18:50:41;34.80;39.20
40756;DHT22;26461;45.630;9.418;2023-08-21T18:53:47;34.70;39.90
40756;DHT22;26461;45.630;9.418;2023-08-21T18:56:57;34.60;40.20
40756;DHT22;26461;45.630;9.418;2023-08-21T19:00:03;34.50;40.60
40756;DHT22;26461;45.630;9.418;2023-08-21T19:03:14;34.40;40.50
40756;DHT22;26461;45.630;9.418;2023-08-21T19:06:20;34.30;40.70
40756;DHT22;26461;45.630;9.418;2023-08-21T19:09:25;34.10;41.10
40756;DHT22;26461;45.630;9.418;2023-08-21T19:12:36;34.10;41.30
40756;DHT22;26461;45.630;9.418;2023-08-21T19:15:41;33.90;41.50
40756;DHT22;26461;45.630;9.418;2023-08-21T19:18:47;33.90;41.50
40756;DHT22;26461;45.630;9.418;2023-08-21T19:21:57;33.80;41.20
40756;DHT22;26461;45.630;9.418;2023-08-21T19:25:10;33.80;41.40
40756;DHT22;26461;45.630;9.418;2023-08-21T19:28:20;33.80;41.90
40756;DHT22;26461;45.630;9.418;2023-08-21T19:31:31;33.70;42.00
40756;DHT22;26461;45.630;9.418;2023-08-21T19:34:36;33.70;42.00
40756;DHT22;26461;45.630;9.418;2023-08-21T19:37:42;33.70;42.50
40756;DHT22;26461;45.630;9.418;2023-08-21T19:40:52;33.60;42.90
40756;DHT22;26461;45.630;9.418;2023-08-21T19:43:57;33.50;42.80
40756;DHT22;26461;45.630;9.418;2023-08-21T19:47:07;33.50;42.50
40756;DHT22;26461;45.630;9.418;2023-08-21T19:50:13;33.50;42.30
40756;DHT22;26461;45.630;9.418;2023-08-21T19:53:18;33.60;42.10
40756;DHT22;26461;45.630;9.418;2023-08-21T19:56:30;33.50;42.10
40756;DHT22;26461;45.630;9.418;2023-08-21T19:59:35;33.40;42.00
40756;DHT22;26461;45.630;9.418;2023-08-21T20:02:41;33.40;42.20
40756;DHT22;26461;45.630;9.418;2023-08-21T20:05:59;33.30;42.50
40756;DHT22;26461;45.630;9.418;2023-08-21T20:09:11;33.20;42.50
40756;DHT22;26461;45.630;9.418;2023-08-21T20:12:16;33.20;42.70
40756;DHT22;26461;45.630;9.418;2023-08-21T20:15:23;33.20;42.80
40756;DHT22;26461;45.630;9.418;2023-08-21T20:18:30;33.20;43.10
40756;DHT22;26461;45.630;9.418;2023-08-21T20:21:40;33.20;43.30
40756;DHT22;26461;45.630;9.418;2023-08-21T20:24:51;33.20;43.40